Time;durP1;ratioP1;P1;durP2;ratioP2;P2;SDS_P1;SDS_P2;PMS_P1;PMS_P2;Temp;Humidity;BMP_temperature;BMP_pressure;BME280_temperature;BME280_humidity;BME280_pressure;Samples;Min_cycle;Max_cycle;Signal;HPM_P1;HPM_P2
2024/04/19 00:02:44;;;;;;;3.10;2.03;;;;;;;7.39;100.00;101068.25;6277469;27;20271;-70
2024/04/19 00:06:06;;;;;;;7.90;2.67;;;;;;;7.37;100.00;101064.81;6280816;27;20295;-70
2024/04/19 00:09:31;;;;;;;4.00;2.07;;;;;;;7.28;100.00;101059.28;6295546;27;20282;-70
2024/04/19 00:12:55;;;;;;;3.23;2.63;;;;;;;7.26;100.00;101057.56;6281884;27;20279;-69
2024/04/19 00:16:17;;;;;;;3.23;2.00;;;;;;;7.24;100.00;101054.13;6282225;27;20283;-69
2024/04/19 00:19:40;;;;;;;4.50;2.33;;;;;;;7.30;100.00;101043.94;6292994;27;20270;-69
2024/04/19 00:23:02;;;;;;;2.37;2.17;;;;;;;7.31;100.00;101046.50;6279792;27;20279;-70
2024/04/19 00:26:27;;;;;;;4.57;3.40;;;;;;;7.36;100.00;101022.91;6274662;27;20672;-69
2024/04/19 00:29:49;;;;;;;3.00;2.70;;;;;;;7.45;100.00;101026.75;6282045;27;20275;-70
2024/04/19 00:33:09;;;;;;;3.13;1.90;;;;;;;7.45;100.00;101024.06;6273725;27;20282;-71
2024/04/19 00:36:31;;;;;;;2.40;2.20;;;;;;;7.49;100.00;101014.81;6275947;27;20283;-69
2024/04/19 00:39:53;;;;;;;3.73;2.77;;;;;;;7.33;100.00;101003.47;6253968;27;20632;-69
2024/04/19 00:43:15;;;;;;;3.47;2.20;;;;;;;7.40;100.00;100997.56;6250276;27;20272;-70
2024/04/19 00:46:38;;;;;;;3.67;2.30;;;;;;;7.39;100.00;100989.63;6266429;27;20279;-69
2024/04/19 00:50:20;;;;;;;2.33;1.90;;;;;;;7.35;100.00;100990.81;6278855;27;20271;-70
2024/04/19 00:53:43;;;;;;;5.70;2.73;;;;;;;7.30;100.00;100980.47;6246584;27;20272;-70
2024/04/19 00:57:25;;;;;;;2.33;1.87;;;;;;;7.22;100.00;100972.09;6241392;27;20528;-70
2024/04/19 01:00:50;;;;;;;4.27;2.50;;;;;;;7.14;100.00;100969.13;6239877;27;20264;-70
2024/04/19 01:04:10;;;;;;;5.13;1.97;;;;;;;7.22;100.00;100962.22;6288055;27;20271;-70
2024/04/19 01:07:32;;;;;;;7.30;2.60;;;;;;;7.18;100.00;100966.09;6280185;27;20283;-70
2024/04/19 01:10:55;;;;;;;10.03;3.47;;;;;;;7.02;100.00;100960.16;6285209;27;20263;-70
2024/04/19 01:14:17;;;;;;;4.90;1.77;;;;;;;7.01;100.00;100939.69;6310426;27;20355;-69
2024/04/19 01:17:42;;;;;;;8.43;2.13;;;;;;;6.96;100.00;100939.19;6299629;27;20326;-69
2024/04/19 01:21:05;;;;;;;3.10;2.07;;;;;;;7.12;100.00;100936.22;6280674;27;20274;-70
2024/04/19 01:24:38;;;;;;;2.47;2.03;;;;;;;7.01;100.00;100934.31;6289674;27;20481;-68
2024/04/19 01:28:03;;;;;;;3.23;1.90;;;;;;;6.91;100.00;100929.75;6282696;27;20302;-70
2024/04/19 01:31:26;;;;;;;6.07;2.50;;;;;;;6.84;100.00;100926.66;6286222;27;20267;-69
2024/04/19 01:34:48;;;;;;;2.47;2.33;;;;;;;6.82;100.00;100914.34;6292967;27;20278;-69
2024/04/19 01:38:08;;;;;;;2.30;1.70;;;;;;;6.56;100.00;100901.97;6285160;27;20275;-69
2024/04/19 01:41:31;;;;;;;3.93;2.53;;;;;;;6.62;100.00;100893.50;6280182;27;20299;-70
2024/04/19 01:44:56;;;;;;;4.50;2.43;;;;;;;6.52;100.00;100889.75;6296635;27;20283;-69
2024/04/19 01:48:19;;;;;;;2.23;1.70;;;;;;;6.28;100.00;100877.16;6284616;27;20283;-69
2024/04/19 01:51:41;;;;;;;2.90;2.10;;;;;;;6.21;100.00;100886.63;6287481;27;20741;-69
2024/04/19 01:55:01;;;;;;;2.87;1.70;;;;;;;6.30;100.00;100875.22;6257044;27;20290;-70
2024/04/19 01:58:24;;;;;;;7.50;3.33;;;;;;;6.22;100.00;100861.53;6291298;27;20279;-70
2024/04/19 02:01:48;;;;;;;2.60;2.40;;;;;;;6.32;100.00;100846.53;6279913;27;20337;-69
2024/04/19 02:05:08;;;;;;;13.13;3.53;;;;;;;6.23;100.00;100879.34;6285964;27;20758;-69
2024/04/19 02:08:31;;;;;;;2.40;1.83;;;;;;;6.17;100.00;100836.09;6288885;27;20318;-69
2024/04/19 02:11:53;;;;;;;3.43;2.40;;;;;;;6.00;100.00;100823.91;6285295;27;20478;-70
2024/04/19 02:15:16;;;;;;;2.57;2.07;;;;;;;5.98;100.00;100819.63;6288498;27;20290;-68
2024/04/19 02:18:40;;;;;;;2.30;2.10;;;;;;;6.11;100.00;100812.44;6291272;27;20287;-69
2024/04/19 02:22:00;;;;;;;2.20;2.10;;;;;;;6.02;100.00;100803.25;6285660;27;20274;-69
2024/04/19 02:25:23;;;;;;;4.13;3.10;;;;;;;6.06;100.00;100796.69;6283252;27;20505;-69
2024/04/19 02:32:24;;;;;;;2.40;2.13;;;;;;;6.04;100.00;100777.22;6279150;27;20287;-70
2024/04/19 02:35:49;;;;;;;5.90;2.87;;;;;;;6.00;100.00;100766.84;6286470;27;20275;-70
2024/04/19 02:39:12;;;;;;;2.40;2.27;;;;;;;5.83;100.00;100756.47;6292123;27;20263;-70
2024/04/19 02:42:34;;;;;;;2.27;2.17;;;;;;;5.93;100.00;100746.84;6285687;27;20275;-70
2024/04/19 02:45:56;;;;;;;3.63;2.57;;;;;;;5.76;100.00;100753.38;6285291;27;20283;-70
2024/04/19 02:49:18;;;;;;;3.47;3.03;;;;;;;5.72;100.00;100733.16;6292310;27;20311;-71
2024/04/19 02:52:43;;;;;;;2.27;1.57;;;;;;;5.59;100.00;100730.50;6284516;27;20271;-70
2024/04/19 02:56:07;;;;;;;2.20;2.00;;;;;;;5.66;100.00;100714.88;6289007;27;20291;-70
2024/04/19 02:59:29;;;;;;;2.20;2.00;;;;;;;5.67;100.00;100703.22;6287829;27;20322;-70
2024/04/19 03:02:51;;;;;;;2.67;2.30;;;;;;;5.68;100.00;100683.53;6278100;27;20271;-69
2024/04/19 03:06:13;;;;;;;2.87;2.27;;;;;;;5.58;100.00;100698.53;6310559;27;20634;-70
2024/04/19 03:09:38;;;;;;;3.93;2.10;;;;;;;5.50;100.00;100677.69;6289374;27;20467;-70
2024/04/19 03:13:01;;;;;;;4.10;2.20;;;;;;;5.59;100.00;100663.66;6284743;27;20278;-70
2024/04/19 03:16:23;;;;;;;2.40;2.20;;;;;;;5.55;100.00;100655.94;6282955;27;20275;-71
2024/04/19 03:19:45;;;;;;;2.03;1.90;;;;;;;5.53;100.00;100645.38;6290164;27;20331;-69
2024/04/19 03:23:08;;;;;;;1.97;1.87;;;;;;;5.48;100.00;100627.97;6281186;27;20523;-69
2024/04/19 03:26:33;;;;;;;3.50;2.53;;;;;;;5.51;100.00;100625.91;6292702;27;20282;-69
2024/04/19 03:29:57;;;;;;;3.40;2.70;;;;;;;5.57;100.00;100617.44;6292383;27;20270;-70
2024/04/19 03:33:20;;;;;;;2.47;2.27;;;;;;;5.53;100.00;100625.81;6283412;27;20270;-69
2024/04/19 03:36:42;;;;;;;2.17;2.03;;;;;;;5.58;100.00;100610.28;6288041;27;20283;-70
2024/04/19 03:40:04;;;;;;;2.90;2.40;;;;;;;5.51;100.00;100596.50;6286980;27;20647;-70
2024/04/19 03:43:33;;;;;;;3.30;3.00;;;;;;;5.43;100.00;100596.22;6289090;27;20275;-70
2024/04/19 03:46:52;;;;;;;2.40;2.20;;;;;;;5.46;100.00;100579.13;6282428;27;20263;-70
2024/04/19 03:50:15;;;;;;;2.77;2.57;;;;;;;5.45;100.00;100577.38;6288146;27;20259;-70
2024/04/19 03:53:37;;;;;;;5.97;3.00;;;;;;;5.38;100.00;100568.13;6295539;27;20323;-70
2024/04/19 03:57:00;;;;;;;2.17;2.00;;;;;;;5.41;100.00;100552.72;6290269;27;20259;-70
2024/04/19 04:00:25;;;;;;;2.97;2.70;;;;;;;5.39;100.00;100554.66;6272538;27;20267;-69
2024/04/19 04:03:48;;;;;;;3.20;3.00;;;;;;;5.50;100.00;100532.47;6245666;27;20272;-71
2024/04/19 04:07:10;;;;;;;1.90;1.70;;;;;;;5.56;100.00;100510.63;6251782;27;20283;-71
2024/04/19 04:10:33;;;;;;;2.93;1.97;;;;;;;5.48;100.00;100507.69;6284907;27;20263;-70
2024/04/19 04:13:56;;;;;;;4.17;2.43;;;;;;;5.53;100.00;100509.03;6287666;27;20586;-70
2024/04/19 04:17:21;;;;;;;2.90;2.70;;;;;;;5.60;100.00;100496.06;6283660;27;20839;-70
2024/04/19 04:20:43;;;;;;;2.27;2.03;;;;;;;5.63;100.00;100490.50;6282232;27;20323;-71
2024/04/19 04:24:07;;;;;;;5.57;3.23;;;;;;;5.43;100.00;100483.09;6282671;27;20303;-70
2024/04/19 04:27:29;;;;;;;2.30;2.10;;;;;;;5.44;100.00;100476.81;6276358;27;20545;-70
2024/04/19 04:30:52;;;;;;;2.30;2.20;;;;;;;5.33;100.00;100463.38;6272303;27;20327;-70
2024/04/19 04:34:17;;;;;;;2.60;2.43;;;;;;;5.26;100.00;100457.63;6283507;27;20626;-69
2024/04/19 04:37:39;;;;;;;4.10;3.70;;;;;;;5.25;100.00;100441.72;6281858;27;20290;-69
2024/04/19 04:41:01;;;;;;;4.90;2.90;;;;;;;5.31;100.00;100442.13;6283112;27;20334;-70
2024/04/19 04:44:24;;;;;;;2.80;2.60;;;;;;;5.40;100.00;100446.75;6284784;27;20331;-70
2024/04/19 04:47:46;;;;;;;3.13;2.60;;;;;;;5.41;100.00;100432.44;6243885;27;20610;-71
2024/04/19 04:51:11;;;;;;;2.60;2.50;;;;;;;5.38;100.00;100423.81;6248853;27;20288;-70
2024/04/19 04:54:33;;;;;;;3.10;2.90;;;;;;;5.32;100.00;100417.06;6279378;27;20267;-70
2024/04/19 04:57:55;;;;;;;5.37;3.17;;;;;;;5.29;100.00;100408.44;6288043;27;20606;-71
2024/04/19 05:01:18;;;;;;;1.83;1.73;;;;;;;5.23;100.00;100401.75;6237809;27;20332;-70
2024/04/19 05:04:40;;;;;;;2.53;2.33;;;;;;;5.09;100.00;100387.72;6255680;27;20280;-71
2024/04/19 05:08:05;;;;;;;3.00;2.73;;;;;;;5.18;100.00;100381.66;6246949;27;20284;-70
2024/04/19 05:11:28;;;;;;;2.07;1.97;;;;;;;5.21;100.00;100368.94;6247508;27;20268;-69
2024/04/19 05:14:50;;;;;;;2.37;2.27;;;;;;;5.18;100.00;100366.50;6291411;27;20367;-69
2024/04/19 05:18:13;;;;;;;2.07;1.97;;;;;;;5.16;100.00;100363.09;6291637;27;20263;-70
2024/04/19 05:21:35;;;;;;;1.70;1.50;;;;;;;5.09;100.00;100348.47;6294607;27;20812;-70
2024/04/19 05:25:00;;;;;;;2.00;1.90;;;;;;;5.11;100.00;100345.72;6280998;27;20275;-69
2024/04/19 05:28:23;;;;;;;2.20;2.00;;;;;;;5.25;100.00;100338.38;6286307;27;20894;-69
2024/04/19 05:31:46;;;;;;;1.80;1.70;;;;;;;5.22;100.00;100337.72;6275840;27;20330;-69
2024/04/19 05:35:08;;;;;;;3.13;1.90;;;;;;;5.14;100.00;100335.63;6291856;27;20291;-68
2024/04/19 05:38:31;;;;;;;1.90;1.80;;;;;;;5.35;100.00;100327.81;6282807;27;20271;-68
2024/04/19 05:41:56;;;;;;;2.47;2.27;;;;;;;5.26;100.00;100316.00;6270093;27;21667;-70
2024/04/19 05:45:18;;;;;;;2.40;2.30;;;;;;;5.38;100.00;100316.91;6273544;27;20275;-69
2024/04/19 05:48:41;;;;;;;2.60;2.40;;;;;;;5.23;100.00;100315.41;6280543;27;21378;-66
2024/04/19 05:52:03;;;;;;;2.27;2.10;;;;;;;5.27;100.00;100307.03;6265590;27;20267;-67
2024/04/19 05:55:26;;;;;;;2.23;1.77;;;;;;;5.37;100.00;100316.03;6243790;27;20961;-67
2024/04/19 05:58:51;;;;;;;3.40;3.20;;;;;;;5.41;100.00;100316.66;6256249;27;20259;-68
2024/04/19 06:02:13;;;;;;;1.63;1.53;;;;;;;5.48;100.00;100300.06;6259109;27;20292;-67
2024/04/19 06:05:36;;;;;;;1.90;1.80;;;;;;;5.51;100.00;100291.78;6235915;27;22712;-67
2024/04/19 06:08:59;;;;;;;2.10;2.00;;;;;;;5.59;100.00;100293.88;6243869;27;20557;-68
2024/04/19 06:12:22;;;;;;;1.60;1.50;;;;;;;5.57;100.00;100290.44;6275720;27;20267;-67
2024/04/19 06:15:46;;;;;;;2.23;2.00;;;;;;;5.66;100.00;100279.03;6260292;27;20271;-68
2024/04/19 06:19:08;;;;;;;2.47;2.33;;;;;;;5.79;100.00;100261.06;6283505;27;20283;-68
2024/04/19 06:22:31;;;;;;;2.30;2.20;;;;;;;5.76;100.00;100263.16;6284464;27;20502;-68
2024/04/19 06:25:55;;;;;;;2.60;2.03;;;;;;;5.83;100.00;100257.19;6274705;27;20282;-67
2024/04/19 06:29:18;;;;;;;2.27;2.17;;;;;;;5.90;100.00;100242.38;6274122;27;20270;-68
2024/04/19 06:32:43;;;;;;;2.20;2.10;;;;;;;6.06;100.00;100234.84;6279688;27;20959;-68
2024/04/19 06:36:06;;;;;;;2.87;2.10;;;;;;;6.18;100.00;100228.47;6247530;27;20284;-68
2024/04/19 06:39:29;;;;;;;2.07;1.97;;;;;;;6.10;100.00;100232.75;6257196;27;20481;-69
2024/04/19 06:42:51;;;;;;;2.43;2.33;;;;;;;6.19;100.00;100224.00;6250299;27;20286;-68
2024/04/19 06:46:13;;;;;;;4.37;2.00;;;;;;;6.23;100.00;100206.72;6282722;27;20283;-69
2024/04/19 06:49:38;;;;;;;2.20;2.10;;;;;;;6.24;100.00;100197.69;6283808;27;20275;-68
2024/04/19 06:53:01;;;;;;;2.47;2.33;;;;;;;6.39;100.00;100205.31;6275661;27;20279;-68
2024/04/19 06:56:23;;;;;;;2.00;1.80;;;;;;;6.35;100.00;100198.53;6279214;27;20267;-68
2024/04/19 06:59:46;;;;;;;2.63;2.43;;;;;;;6.31;100.00;100190.88;6285605;27;20283;-68
2024/04/19 07:03:08;;;;;;;3.03;2.80;;;;;;;6.34;100.00;100187.94;6277853;27;20279;-67
2024/04/19 07:06:33;;;;;;;3.03;2.83;;;;;;;6.41;100.00;100191.81;6281210;27;20326;-68
2024/04/19 07:09:55;;;;;;;2.50;2.30;;;;;;;6.53;100.00;100174.72;6287534;27;20538;-67
2024/04/19 07:13:18;;;;;;;3.03;2.80;;;;;;;6.61;100.00;100172.28;6275456;27;20275;-68
2024/04/19 07:16:40;;;;;;;4.07;3.60;;;;;;;6.69;100.00;100175.16;6268375;27;20275;-68
2024/04/19 07:20:02;;;;;;;3.60;3.30;;;;;;;6.80;100.00;100177.75;6281468;27;20291;-67
2024/04/19 07:23:28;;;;;;;3.70;3.50;;;;;;;6.95;100.00;100167.56;6244519;27;20272;-67
2024/04/19 07:26:50;;;;;;;3.07;2.87;;;;;;;6.91;100.00;100169.66;6271545;27;20271;-68
2024/04/19 07:30:13;;;;;;;4.23;3.90;;;;;;;6.97;100.00;100166.47;6277501;27;20294;-67
2024/04/19 07:33:35;;;;;;;4.37;4.03;;;;;;;7.03;100.00;100162.44;6290179;27;20271;-68
2024/04/19 07:36:57;;;;;;;3.87;3.50;;;;;;;7.17;100.00;100165.63;6292155;27;20316;-68
2024/04/19 07:40:22;;;;;;;3.43;3.10;;;;;;;7.32;100.00;100157.25;6283610;27;20286;-67
2024/04/19 07:43:44;;;;;;;3.33;3.10;;;;;;;7.34;100.00;100156.13;6281776;27;20298;-68
2024/04/19 07:47:08;;;;;;;3.80;3.50;;;;;;;7.53;100.00;100155.38;6277353;27;20286;-68
2024/04/19 07:50:30;;;;;;;4.33;3.30;;;;;;;7.63;100.00;100146.38;6274297;27;20259;-68
2024/04/19 07:53:52;;;;;;;2.83;2.57;;;;;;;7.40;100.00;100150.22;6274369;27;20275;-69
2024/04/19 07:57:17;;;;;;;2.83;2.63;;;;;;;7.66;100.00;100146.09;6278492;27;20496;-70
2024/04/19 08:00:40;;;;;;;2.77;2.57;;;;;;;7.82;100.00;100135.69;6275518;27;20270;-68
2024/04/19 08:04:03;;;;;;;3.33;3.03;;;;;;;8.15;100.00;100125.59;6253602;27;20597;-67
2024/04/19 08:07:26;;;;;;;4.60;2.73;;;;;;;8.28;100.00;100118.16;6217605;27;20276;-67
2024/04/19 08:10:48;;;;;;;3.57;3.27;;;;;;;8.36;100.00;100111.09;6251656;27;20263;-68
2024/04/19 08:14:13;;;;;;;2.30;2.20;;;;;;;8.72;100.00;100109.50;6290510;27;20635;-67
2024/04/19 08:17:36;;;;;;;3.63;3.33;;;;;;;9.25;100.00;100107.13;6268653;27;20291;-67
2024/04/19 08:20:58;;;;;;;3.10;2.90;;;;;;;9.18;100.00;100096.13;6277502;27;20653;-69
2024/04/19 08:24:21;;;;;;;3.00;2.70;;;;;;;9.36;100.00;100101.59;6288527;27;20322;-67
2024/04/19 08:27:43;;;;;;;6.20;3.07;;;;;;;9.68;100.00;100089.38;6272042;27;20286;-68
2024/04/19 08:31:07;;;;;;;3.97;3.00;;;;;;;9.89;100.00;100091.00;6272984;27;20279;-68
2024/04/19 08:34:30;;;;;;;3.33;3.10;;;;;;;9.76;100.00;100074.34;6281003;27;20279;-68
2024/04/19 08:37:52;;;;;;;2.87;1.80;;;;;;;10.34;100.00;100086.44;6270260;27;20271;-69
2024/04/19 08:41:15;;;;;;;4.90;2.33;;;;;;;10.24;100.00;100078.41;6278178;27;20563;-68
2024/04/19 08:44:38;;;;;;;3.50;2.13;;;;;;;10.18;100.00;100072.81;6288035;27;20456;-67
2024/04/19 08:48:02;;;;;;;2.07;1.87;;;;;;;10.52;100.00;100067.56;6271564;27;20275;-68
2024/04/19 08:51:26;;;;;;;4.57;3.40;;;;;;;10.93;100.00;100067.69;6277219;27;20310;-68
2024/04/19 08:54:50;;;;;;;4.17;2.30;;;;;;;10.33;100.00;100052.41;6284884;27;20259;-68
2024/04/19 08:58:13;;;;;;;3.27;2.10;;;;;;;9.60;100.00;100048.94;6282829;27;20308;-68
2024/04/19 09:01:36;;;;;;;3.77;2.47;;;;;;;9.44;100.00;100054.13;6278156;27;20258;-68
2024/04/19 09:05:01;;;;;;;3.70;2.10;;;;;;;9.35;100.00;100064.91;6276678;27;20263;-68
2024/04/19 09:08:23;;;;;;;4.00;1.33;;;;;;;9.13;100.00;100081.44;6281788;27;20267;-67
2024/04/19 09:11:48;;;;;;;4.20;1.70;;;;;;;8.94;100.00;100076.94;6277575;27;20291;-68
2024/04/19 09:15:11;;;;;;;2.53;1.40;;;;;;;8.94;100.00;100082.34;6282771;27;20343;-67
2024/04/19 09:18:33;;;;;;;3.30;1.20;;;;;;;9.48;100.00;100068.97;6304361;27;20503;-67
2024/04/19 09:22:00;;;;;;;6.13;1.73;;;;;;;10.01;100.00;100065.53;6281894;27;20322;-67
2024/04/19 09:25:23;;;;;;;1.43;0.93;;;;;;;10.63;100.00;100059.22;6281568;27;20279;-68
2024/04/19 09:28:45;;;;;;;2.93;1.67;;;;;;;10.73;100.00;100060.84;6289173;27;20747;-68
2024/04/19 09:32:09;;;;;;;6.30;2.97;;;;;;;11.15;100.00;100063.63;6273729;27;20303;-67
2024/04/19 09:35:31;;;;;;;3.33;1.90;;;;;;;10.48;100.00;100055.41;6305362;27;20274;-67
2024/04/19 09:38:59;;;;;;;3.77;1.97;;;;;;;10.02;100.00;100067.22;6304261;27;20275;-67
2024/04/19 09:42:22;;;;;;;2.30;1.60;;;;;;;8.90;100.00;100085.44;6275437;27;20298;-69
2024/04/19 09:45:47;;;;;;;1.63;1.23;;;;;;;8.29;100.00;100095.69;6278059;27;20718;-68
2024/04/19 09:49:11;;;;;;;2.27;2.17;;;;;;;7.62;100.00;100079.44;6288198;27;20271;-68
2024/04/19 09:52:34;;;;;;;6.80;2.60;;;;;;;7.87;100.00;100069.06;6287542;27;20291;-68
2024/04/19 09:56:16;;;;;;;4.33;2.17;;;;;;;8.16;100.00;100068.22;6249412;27;20268;-67
2024/04/19 09:59:40;;;;;;;2.13;1.90;;;;;;;8.34;100.00;100058.53;6280611;27;20291;-68
2024/04/19 10:03:08;;;;;;;1.93;1.80;;;;;;;8.82;100.00;100060.13;6272048;27;20282;-69
2024/04/19 10:06:35;;;;;;;6.50;2.63;;;;;;;9.28;100.00;100042.31;6280727;27;20314;-68
2024/04/19 10:09:59;;;;;;;1.93;1.67;;;;;;;9.90;100.00;100041.53;6275834;27;20271;-70
2024/04/19 10:13:30;;;;;;;3.03;1.73;;;;;;;10.16;100.00;100029.00;6271388;27;20263;-69
2024/04/19 10:16:52;;;;;;;2.30;2.10;;;;;;;10.65;100.00;100030.28;6238283;27;20280;-70
2024/04/19 10:20:16;;;;;;;5.53;2.67;;;;;;;10.70;100.00;100020.69;6248110;27;20306;-66
2024/04/19 10:23:39;;;;;;;5.20;2.20;;;;;;;11.14;100.00;100019.63;6244157;27;20400;-65
2024/04/19 10:27:05;;;;;;;2.10;1.90;;;;;;;11.26;100.00;100002.13;6245060;27;20271;-65
2024/04/19 10:30:34;;;;;;;4.10;2.30;;;;;;;11.69;100.00;99992.22;6280573;27;20279;-65
2024/04/19 10:33:57;;;;;;;6.80;3.23;;;;;;;11.55;100.00;99982.03;6271812;27;20272;-69
2024/04/19 10:37:19;;;;;;;6.97;2.13;;;;;;;11.24;100.00;99982.56;6286231;27;20268;-68
2024/04/19 10:40:42;;;;;;;2.70;2.40;;;;;;;10.22;100.00;99996.91;6278361;27;20275;-67
2024/04/19 10:44:04;;;;;;;10.73;2.13;;;;;;;9.63;100.00;99986.75;6270333;27;20322;-69
2024/04/19 10:47:29;;;;;;;2.43;2.17;;;;;;;9.43;100.00;100001.31;6237883;27;20268;-68
2024/04/19 10:50:52;;;;;;;2.67;1.93;;;;;;;9.43;100.00;99993.22;6235366;27;20327;-69
2024/04/19 10:54:14;;;;;;;4.50;2.43;;;;;;;9.88;100.00;99989.69;6256141;27;20268;-70
2024/04/19 10:57:37;;;;;;;1.70;1.60;;;;;;;10.12;100.00;99973.75;6282989;27;20298;-68
2024/04/19 11:01:00;;;;;;;4.80;2.50;;;;;;;11.01;100.00;99961.75;6241564;27;20264;-68
2024/04/19 11:04:25;;;;;;;2.87;2.43;;;;;;;11.03;100.00;99960.59;6268308;27;20295;-69
2024/04/19 11:07:47;;;;;;;3.20;2.07;;;;;;;10.82;100.00;99973.63;6275274;27;20263;-70
2024/04/19 11:11:09;;;;;;;1.93;1.77;;;;;;;11.40;100.00;99957.53;6274143;27;20331;-71
2024/04/19 11:14:32;;;;;;;4.57;1.67;;;;;;;11.26;100.00;99966.25;6296793;27;20275;-72
2024/04/19 11:17:54;;;;;;;3.10;1.83;;;;;;;12.24;100.00;99958.19;6242296;27;20287;-71
2024/04/19 11:21:19;;;;;;;2.50;1.90;;;;;;;12.03;100.00;99956.00;6234873;27;20268;-73
2024/04/19 11:24:42;;;;;;;8.57;2.10;;;;;;;11.67;100.00;99949.19;6259781;27;20560;-72
2024/04/19 11:28:07;;;;;;;5.90;2.10;;;;;;;12.18;100.00;99942.66;6248739;27;20942;-73
2024/04/19 11:31:29;;;;;;;4.17;2.60;;;;;;;12.21;100.00;99946.84;6243857;27;20283;-70
2024/04/19 11:34:51;;;;;;;4.23;2.10;;;;;;;11.96;100.00;99944.16;6261104;27;20280;-71
2024/04/19 11:38:17;;;;;;;6.03;2.30;;;;;;;11.89;100.00;99945.00;6255873;27;20312;-72
2024/04/19 11:41:39;;;;;;;5.83;2.57;;;;;;;11.84;100.00;99947.34;6279121;27;20287;-70
2024/04/19 11:45:06;;;;;;;7.70;2.30;;;;;;;11.46;100.00;99946.06;6292861;27;20271;-68
2024/04/19 11:48:30;;;;;;;2.80;1.90;;;;;;;11.02;100.00;99958.88;6288010;27;20472;-69
2024/04/19 11:51:53;;;;;;;7.33;3.07;;;;;;;9.87;100.00;99964.59;6270537;27;20453;-68
2024/04/19 11:55:18;;;;;;;2.93;2.30;;;;;;;9.56;100.00;99958.75;6282536;27;20275;-67
2024/04/19 11:58:40;;;;;;;10.27;3.37;;;;;;;9.48;100.00;99957.81;6297061;27;20314;-67
2024/04/19 12:02:03;;;;;;;11.30;3.67;;;;;;;10.42;100.00;99960.72;6272924;27;20341;-67
2024/04/19 12:05:25;;;;;;;7.43;3.37;;;;;;;11.35;100.00;99951.75;6276138;27;20862;-67
2024/04/19 12:08:48;;;;;;;8.20;2.00;;;;;;;10.66;100.00;99953.81;6279268;27;22767;-67
2024/04/19 12:12:14;;;;;;;7.90;2.83;;;;;;;10.99;100.00;99940.31;6266100;27;22755;-68
2024/04/19 12:15:37;;;;;;;7.30;3.37;;;;;;;11.57;100.00;99934.97;6274399;27;22641;-68
2024/04/19 12:18:59;;;;;;;5.43;3.10;;;;;;;13.53;100.00;99928.91;6275754;27;20307;-70
2024/04/19 12:22:21;;;;;;;8.23;3.43;;;;;;;14.26;100.00;99933.78;6273376;27;20275;-69
2024/04/19 12:25:44;;;;;;;5.20;2.77;;;;;;;14.96;100.00;99928.84;6275128;27;21008;-68
2024/04/19 12:29:09;;;;;;;4.03;2.20;;;;;;;16.27;100.00;99923.06;6285602;27;20295;-68
2024/04/19 12:32:32;;;;;;;5.10;2.30;;;;;;;14.22;100.00;99918.91;6269955;27;20263;-68
2024/04/19 12:35:54;;;;;;;5.77;2.73;;;;;;;13.49;100.00;99916.75;6279384;27;20259;-68
2024/04/19 12:39:17;;;;;;;5.73;2.77;;;;;;;16.07;100.00;99910.31;6285085;27;20267;-67
2024/04/19 12:42:39;;;;;;;5.77;2.53;;;;;;;15.31;100.00;99908.22;6270930;27;20403;-67
2024/04/19 12:46:04;;;;;;;3.03;1.63;;;;;;;17.52;100.00;99902.97;6258364;27;20268;-67
2024/04/19 12:49:27;;;;;;;7.10;2.37;;;;;;;17.36;100.00;99903.28;6270517;27;20278;-67
2024/04/19 12:52:49;;;;;;;1.80;1.67;;;;;;;17.42;100.00;99903.31;6269901;27;20746;-67
2024/04/19 12:56:11;;;;;;;8.90;2.33;;;;;;;15.99;99.38;99905.88;6280397;27;20621;-69
2024/04/19 12:59:34;;;;;;;2.93;1.93;;;;;;;14.10;100.00;99907.66;6296976;27;20903;-68
2024/04/19 13:02:59;;;;;;;4.43;2.33;;;;;;;17.61;100.00;99901.72;6282685;27;20267;-69
2024/04/19 13:06:22;;;;;;;6.40;2.50;;;;;;;17.89;87.90;99901.59;6275856;27;20665;-68
2024/04/19 13:09:44;;;;;;;4.40;2.23;;;;;;;14.51;99.90;99910.88;6290604;27;20287;-67
2024/04/19 13:13:12;;;;;;;2.77;1.97;;;;;;;15.85;100.00;99895.91;6279231;27;20279;-68
2024/04/19 13:16:34;;;;;;;7.57;2.93;;;;;;;17.00;98.44;99903.53;6278898;27;21435;-67
2024/04/19 13:19:59;;;;;;;5.20;2.63;;;;;;;17.45;88.77;99891.16;6292079;27;20263;-67
2024/04/19 13:23:22;;;;;;;7.47;2.13;;;;;;;14.19;100.00;99903.84;6275509;27;20605;-68
2024/04/19 13:26:44;;;;;;;5.30;3.13;;;;;;;13.46;100.00;99910.81;6278923;27;20279;-69
2024/04/19 13:30:08;;;;;;;5.47;3.07;;;;;;;12.26;100.00;99912.91;6287749;27;21162;-67
2024/04/19 13:33:30;;;;;;;7.63;3.20;;;;;;;12.20;100.00;99894.69;6281268;27;20267;-69
2024/04/19 13:36:55;;;;;;;5.50;3.30;;;;;;;12.35;100.00;99911.06;6292079;27;20279;-68
2024/04/19 13:40:20;;;;;;;10.10;3.67;;;;;;;12.03;100.00;99910.06;6273690;27;20283;-70
2024/04/19 13:43:42;;;;;;;9.33;2.90;;;;;;;11.54;100.00;99916.38;6282029;27;20283;-69
2024/04/19 13:47:11;;;;;;;11.50;2.67;;;;;;;11.67;100.00;99913.25;6286177;27;20267;-69
2024/04/19 13:50:33;;;;;;;7.47;2.37;;;;;;;11.44;100.00;99906.75;6291815;27;20258;-68
2024/04/19 13:53:58;;;;;;;4.87;2.30;;;;;;;11.24;100.00;99903.50;6289276;27;20267;-68
2024/04/19 13:57:23;;;;;;;2.93;2.10;;;;;;;11.33;100.00;99917.88;6290347;27;20271;-68
2024/04/19 14:00:46;;;;;;;6.33;2.37;;;;;;;11.15;100.00;99907.19;6309073;27;20283;-68
2024/04/19 14:04:08;;;;;;;6.10;2.63;;;;;;;10.94;100.00;99902.22;6281250;27;20279;-68
2024/04/19 14:07:31;;;;;;;5.37;2.30;;;;;;;10.72;100.00;99891.16;6238919;27;20276;-69
2024/04/19 14:11:02;;;;;;;5.63;2.30;;;;;;;10.99;100.00;99904.44;6246573;27;20615;-70
2024/04/19 14:14:47;;;;;;;3.17;2.33;;;;;;;11.57;100.00;99904.41;6257764;27;20279;-69
2024/04/19 14:18:10;;;;;;;4.67;2.13;;;;;;;11.65;100.00;99897.19;6290871;27;20639;-69
2024/04/19 14:21:54;;;;;;;10.17;3.80;;;;;;;10.66;100.00;99905.28;6261611;27;20285;-70
2024/04/19 14:25:37;;;;;;;4.97;1.73;;;;;;;9.92;100.00;99926.44;6259082;27;20274;-69
2024/04/19 14:29:19;;;;;;;7.80;2.77;;;;;;;12.18;100.00;99894.03;6269966;27;20337;-69
2024/04/19 14:33:02;;;;;;;3.43;2.33;;;;;;;13.05;100.00;99893.13;6233727;27;20296;-70
2024/04/19 14:36:44;;;;;;;3.63;1.87;;;;;;;11.94;100.00;99892.16;6285927;27;20272;-70
2024/04/19 14:40:23;;;;;;;4.93;2.77;;;;;;;11.15;100.00;99886.44;6276878;27;20293;-67
2024/04/19 14:43:59;;;;;;;4.07;2.27;;;;;;;10.99;100.00;99893.66;6272194;27;20797;-67
2024/04/19 14:47:51;;;;;;;3.00;2.13;;;;;;;10.74;100.00;99895.41;6248930;27;20287;-69
2024/04/19 14:51:32;;;;;;;6.77;2.83;;;;;;;10.47;100.00;99900.97;6231020;27;20283;-70
2024/04/19 14:54:54;;;;;;;4.07;1.80;;;;;;;10.55;100.00;99894.78;6282716;27;20738;-68
2024/04/19 14:58:16;;;;;;;2.73;2.10;;;;;;;11.17;100.00;99879.03;6276194;27;20275;-69
2024/04/19 15:01:39;;;;;;;4.10;2.53;;;;;;;11.47;100.00;99874.91;6254068;27;20674;-68
2024/04/19 15:05:04;;;;;;;3.87;2.90;;;;;;;11.00;100.00;99871.91;6274736;27;20271;-68
2024/04/19 15:08:26;;;;;;;4.33;2.80;;;;;;;10.80;100.00;99883.13;6271468;27;20282;-68
2024/04/19 15:11:49;;;;;;;3.03;2.07;;;;;;;10.59;100.00;99874.59;6271797;27;20283;-68
2024/04/19 15:15:12;;;;;;;6.03;2.70;;;;;;;10.59;100.00;99875.44;6311165;27;20283;-68
2024/04/19 15:18:35;;;;;;;4.20;2.87;;;;;;;10.64;100.00;99877.66;6267017;27;20279;-68
2024/04/19 15:22:00;;;;;;;7.00;2.00;;;;;;;10.40;100.00;99879.22;6256327;27;20322;-68
2024/04/19 15:25:22;;;;;;;5.27;2.37;;;;;;;10.38;100.00;99874.97;6263095;27;20490;-68
2024/04/19 15:28:45;;;;;;;1.57;1.47;;;;;;;10.49;100.00;99879.25;6283601;27;20626;-67
2024/04/19 15:32:08;;;;;;;4.90;2.57;;;;;;;10.10;100.00;99879.69;6279334;27;20268;-68
2024/04/19 15:35:31;;;;;;;5.50;2.20;;;;;;;10.87;100.00;99867.97;6253517;27;20279;-67
2024/04/19 15:38:56;;;;;;;1.83;1.40;;;;;;;11.29;100.00;99860.69;6268243;27;20807;-67
2024/04/19 15:42:18;;;;;;;3.37;1.70;;;;;;;10.53;100.00;99867.16;6290955;27;20282;-68
2024/04/19 15:45:42;;;;;;;2.73;2.03;;;;;;;10.27;100.00;99870.72;6282253;27;21332;-68
2024/04/19 15:49:04;;;;;;;5.70;3.03;;;;;;;9.92;100.00;99867.22;6290510;27;20282;-68
2024/04/19 15:52:27;;;;;;;3.47;2.37;;;;;;;9.83;100.00;99860.94;6282126;27;20271;-69